Flight Number: EUR2104 Duration: 1:15
Departure: Hamburg Fuhlsbuettel (EDDH) at 08:00 Distance: 324 Nm
Arrival: Munich Int'l (EDDM) at 09:15 Equipment: DHC8

Weather Information
Hamburg-Fuhlsbuettel, Germany (EDDH) 53-38N 010-00E 15M May 23, 2018 - 07:50 PM EDT / 2018.05.23 2350 UTC
Wind: from the NE (050 degrees) at 7 MPH (6 KT):0
Visibility: greater than 7 mile(s):0 Temperature: 55 F (13 C) Dew Point: 44 F (7 C) Relative Humidity: 66% Pressure (altimeter): 30.27 in. Hg (1025 hPa)
ob: EDDH 232350Z 05006KT CAVOK 13/07 Q1025 NOSIG cycle: 0
Sunrise: 03:09 Sunset: 19:24 (UTC)

Munchen, Germany (EDDM) 48-21N 011-47E May 23, 2018 - 07:50 PM EDT / 2018.05.23 2350 UTC
Wind: from the W (270 degrees) at 3 MPH (3 KT):0
Visibility: greater than 7 mile(s):0
Sky conditions: mostly cloudy Weather: light rain showers; Cumulonimbus clouds observed Temperature: 59 F (15 C) Dew Point: 55 F (13 C) Relative Humidity: 87% Pressure (altimeter): 30.06 in. Hg (1018 hPa)
ob: EDDM 232350Z 27003KT 9999 -SHRA FEW016 SCT030CB BKN100 15/13 Q1018 TEMPO SHRA cycle: 0
Sunrise: 03:26 Sunset: 18:53 (UTC)

TAF:2018/05/23 18:27 TAF EDDM 231700Z 2318/2424 VRB03KT 9999 SCT035 PROB30 TEMPO 2318/2323 16012KT 3000 TSRA BKN030CB TEMPO 2323/2409 SHRA BKN010 BKN030CB PROB30 TEMPO 2405/2407 15012KT 3000 TSRA BKN006 BKN020CB PROB40 TEMPO 2409/2416 26015G25KT 3000 TSRAGR BKN012 BKN025CB BECMG 2420/2423 2000 BCFG

Previous Pireps for this route
Date Aircraft Flight time Fuel used Landing rate On time
2012-08-12DHC81.1315660Yes
2014-12-24DHC81.327522-162No
2017-01-10B73701.247868-452Charter
(pireps marked green are flown by you)

Route map